createdAt,value
2023-05-22T00:00:00.653Z,100340
2023-05-22T00:01:00.787Z,100330
2023-05-22T00:02:00.848Z,100330
2023-05-22T00:03:01.839Z,100330
2023-05-22T00:04:00.664Z,100330
2023-05-22T00:05:00.697Z,100330
2023-05-22T00:06:00.708Z,100330
2023-05-22T00:07:00.725Z,100330
2023-05-22T00:08:00.675Z,100330
2023-05-22T00:09:00.702Z,100330
2023-05-22T00:10:00.751Z,100330
2023-05-22T00:11:00.666Z,100330
2023-05-22T00:12:00.714Z,100330
2023-05-22T00:13:00.719Z,100320
2023-05-22T00:14:01.226Z,100330
2023-05-22T00:15:00.928Z,100330
2023-05-22T00:16:00.722Z,100330
2023-05-22T00:17:00.686Z,100330
2023-05-22T00:18:00.736Z,100330
2023-05-22T00:19:00.727Z,100330
2023-05-22T00:20:01.028Z,100330
2023-05-22T00:21:00.647Z,100330
2023-05-22T00:22:00.668Z,100330
2023-05-22T00:23:00.654Z,100330
2023-05-22T00:24:01.132Z,100330
2023-05-22T00:25:03.021Z,100320
2023-05-22T00:26:00.679Z,100330
2023-05-22T00:27:00.674Z,100330
2023-05-22T00:28:01.011Z,100330
2023-05-22T00:29:00.996Z,100330
2023-05-22T00:30:00.730Z,100330
2023-05-22T00:31:00.694Z,100330
2023-05-22T00:32:00.712Z,100330
2023-05-22T00:33:00.697Z,100330
2023-05-22T00:34:00.691Z,100330
2023-05-22T00:35:00.674Z,100330
2023-05-22T00:36:00.920Z,100330
2023-05-22T00:37:00.675Z,100330
2023-05-22T00:38:02.697Z,100330
2023-05-22T00:39:00.668Z,100330
2023-05-22T00:40:00.739Z,100330
2023-05-22T00:41:03.525Z,100330
2023-05-22T00:42:00.988Z,100330
2023-05-22T00:43:00.668Z,100320
2023-05-22T00:44:00.844Z,100330
2023-05-22T00:45:00.718Z,100320
2023-05-22T00:46:00.815Z,100330
2023-05-22T00:47:00.700Z,100330
2023-05-22T00:48:00.691Z,100320
2023-05-22T00:49:00.686Z,100320
2023-05-22T00:50:00.995Z,100330
2023-05-22T00:51:00.863Z,100320
2023-05-22T00:52:01.281Z,100320
2023-05-22T00:53:00.883Z,100320
2023-05-22T00:54:00.942Z,100320
2023-05-22T00:55:01.727Z,100320
2023-05-22T00:56:00.756Z,100320
2023-05-22T00:57:01.354Z,100320
2023-05-22T00:58:04.134Z,100320
2023-05-22T00:59:00.760Z,100320
2023-05-22T01:00:02.524Z,100330
2023-05-22T01:01:00.785Z,100320
2023-05-22T01:02:00.892Z,100320
2023-05-22T01:03:00.802Z,100320
2023-05-22T01:04:01.139Z,100320
2023-05-22T01:05:01.671Z,100330
2023-05-22T01:06:00.677Z,100320
2023-05-22T01:07:00.691Z,100320
2023-05-22T01:08:01.130Z,100320
2023-05-22T01:09:00.795Z,100320
2023-05-22T01:10:00.705Z,100320
2023-05-22T01:11:05.936Z,100320
2023-05-22T01:12:14.972Z,100320
2023-05-22T01:13:13.271Z,100330
2023-05-22T01:14:09.548Z,100320
2023-05-22T01:15:20.583Z,100330
2023-05-22T01:16:20.615Z,100330
2023-05-22T01:17:10.923Z,100330
2023-05-22T01:18:10.738Z,100320
2023-05-22T01:19:15.646Z,100320
2023-05-22T01:20:20.580Z,100320
2023-05-22T01:21:14.967Z,100330
2023-05-22T01:22:13.879Z,100330
2023-05-22T01:23:17.909Z,100330
2023-05-22T01:24:20.594Z,100330
2023-05-22T01:25:14.912Z,100330
2023-05-22T01:26:20.581Z,100330
2023-05-22T01:27:18.048Z,100330
2023-05-22T01:28:13.213Z,100330
2023-05-22T01:29:13.861Z,100330
2023-05-22T01:30:17.808Z,100330
2023-05-22T01:31:04.897Z,100330
2023-05-22T01:32:01.775Z,100330
2023-05-22T01:33:03.262Z,100330
2023-05-22T01:34:02.124Z,100330
2023-05-22T01:35:05.785Z,100330
2023-05-22T01:36:02.464Z,100330
2023-05-22T01:37:01.626Z,100330
2023-05-22T01:38:01.861Z,100330
2023-05-22T01:39:01.452Z,100330
2023-05-22T01:40:01.556Z,100330
2023-05-22T01:41:00.684Z,100330
2023-05-22T01:42:00.880Z,100330
2023-05-22T01:43:00.900Z,100330
2023-05-22T01:44:01.211Z,100330
2023-05-22T01:45:00.824Z,100330
2023-05-22T01:46:00.781Z,100330
2023-05-22T01:47:00.983Z,100330
2023-05-22T01:48:00.783Z,100330
2023-05-22T01:49:00.699Z,100330
2023-05-22T01:50:00.945Z,100330
2023-05-22T01:51:10.635Z,100330
2023-05-22T01:52:09.448Z,100330
2023-05-22T01:53:16.775Z,100330
2023-05-22T01:54:07.951Z,100330
2023-05-22T01:55:07.704Z,100330
2023-05-22T01:56:06.397Z,100330
2023-05-22T01:57:10.714Z,100330
2023-05-22T01:58:15.306Z,100330
2023-05-22T01:59:09.186Z,100330
2023-05-22T02:00:07.380Z,100330
2023-05-22T02:01:01.554Z,100330
2023-05-22T02:02:04.296Z,100330
2023-05-22T02:03:07.726Z,100320
2023-05-22T02:04:01.572Z,100330
2023-05-22T02:05:03.345Z,100320
2023-05-22T02:06:05.175Z,100330
2023-05-22T02:07:02.127Z,100320
2023-05-22T02:08:01.497Z,100330
2023-05-22T02:09:01.605Z,100330
2023-05-22T02:10:02.215Z,100330
2023-05-22T02:11:02.368Z,100320
2023-05-22T02:12:01.839Z,100330
2023-05-22T02:13:01.178Z,100320
2023-05-22T02:14:00.798Z,100320
2023-05-22T02:15:00.782Z,100320
2023-05-22T02:16:01.321Z,100320
2023-05-22T02:17:00.677Z,100320
2023-05-22T02:18:00.687Z,100320
2023-05-22T02:19:00.840Z,100320
2023-05-22T02:20:00.706Z,100320
2023-05-22T02:21:00.674Z,100320
2023-05-22T02:22:01.267Z,100320
2023-05-22T02:23:00.665Z,100320
2023-05-22T02:24:01.449Z,100320
2023-05-22T02:25:00.654Z,100310
2023-05-22T02:26:00.670Z,100320
2023-05-22T02:27:00.678Z,100310
2023-05-22T02:28:00.741Z,100320
2023-05-22T02:29:00.664Z,100320
2023-05-22T02:30:00.715Z,100320
2023-05-22T02:31:00.727Z,100320
2023-05-22T02:32:00.799Z,100310
2023-05-22T02:33:01.053Z,100320
2023-05-22T02:34:00.673Z,100320
2023-05-22T02:35:00.852Z,100320
2023-05-22T02:36:00.823Z,100320
2023-05-22T02:37:01.940Z,100320
2023-05-22T02:38:00.664Z,100320
2023-05-22T02:39:00.656Z,100310
2023-05-22T02:40:00.962Z,100320
2023-05-22T02:41:00.672Z,100320
2023-05-22T02:42:00.675Z,100320
2023-05-22T02:43:00.683Z,100320
2023-05-22T02:44:00.686Z,100320
2023-05-22T02:45:00.928Z,100320
2023-05-22T02:46:00.735Z,100320
2023-05-22T02:47:00.712Z,100320
2023-05-22T02:48:00.740Z,100320
2023-05-22T02:49:00.720Z,100320
2023-05-22T02:50:00.670Z,100320
2023-05-22T02:51:00.674Z,100320
2023-05-22T02:52:00.703Z,100320
2023-05-22T02:53:00.650Z,100320
2023-05-22T02:54:00.679Z,100310
2023-05-22T02:55:00.730Z,100320
2023-05-22T02:56:00.651Z,100320
2023-05-22T02:57:00.676Z,100320
2023-05-22T02:58:01.665Z,100320
2023-05-22T02:59:00.664Z,100310
2023-05-22T03:00:00.855Z,100320
2023-05-22T03:01:00.659Z,100320
2023-05-22T03:02:00.751Z,100310
2023-05-22T03:03:00.820Z,100310
2023-05-22T03:04:00.750Z,100310
2023-05-22T03:05:00.685Z,100310
2023-05-22T03:06:01.022Z,100310
2023-05-22T03:07:00.658Z,100310
2023-05-22T03:08:00.652Z,100310
2023-05-22T03:09:00.665Z,100310
2023-05-22T03:10:00.668Z,100310
2023-05-22T03:11:00.686Z,100310
2023-05-22T03:12:00.707Z,100310
2023-05-22T03:13:00.644Z,100320
2023-05-22T03:14:00.757Z,100310
2023-05-22T03:15:00.720Z,100310
2023-05-22T03:16:00.847Z,100320
2023-05-22T03:17:00.647Z,100310
2023-05-22T03:18:00.732Z,100310
2023-05-22T03:19:09.342Z,100320
2023-05-22T03:20:00.723Z,100310
2023-05-22T03:21:00.660Z,100310
2023-05-22T03:22:00.742Z,100310
2023-05-22T03:23:00.663Z,100310
2023-05-22T03:24:00.803Z,100310
2023-05-22T03:25:00.842Z,100310
2023-05-22T03:26:00.673Z,100310
2023-05-22T03:27:01.152Z,100310
2023-05-22T03:28:00.663Z,100300
2023-05-22T03:29:00.851Z,100310
2023-05-22T03:30:01.925Z,100310
2023-05-22T03:31:00.690Z,100310
2023-05-22T03:32:00.693Z,100310
2023-05-22T03:33:00.709Z,100310
2023-05-22T03:34:01.309Z,100310
2023-05-22T03:35:00.653Z,100310
2023-05-22T03:36:00.715Z,100310
2023-05-22T03:37:00.690Z,100310
2023-05-22T03:38:00.688Z,100310
2023-05-22T03:39:02.641Z,100310
2023-05-22T03:40:00.756Z,100310
2023-05-22T03:41:00.729Z,100310
2023-05-22T03:42:00.915Z,100310
2023-05-22T03:43:00.656Z,100310
2023-05-22T03:44:00.873Z,100310
2023-05-22T03:45:00.691Z,100310
2023-05-22T03:46:00.749Z,100310
2023-05-22T03:47:00.858Z,100300
2023-05-22T03:48:00.672Z,100310
2023-05-22T03:49:00.663Z,100310
2023-05-22T03:50:00.680Z,100310
2023-05-22T03:51:00.744Z,100300
2023-05-22T03:52:01.522Z,100310
2023-05-22T03:53:00.654Z,100310
2023-05-22T03:54:00.695Z,100310
2023-05-22T03:55:00.682Z,100310
2023-05-22T03:56:00.688Z,100310
2023-05-22T03:57:00.654Z,100310
2023-05-22T03:58:00.725Z,100310
2023-05-22T03:59:00.713Z,100310
2023-05-22T04:00:01.203Z,100300
2023-05-22T04:01:00.709Z,100300
2023-05-22T04:02:00.731Z,100310
2023-05-22T04:03:00.857Z,100310
2023-05-22T04:04:00.713Z,100300
2023-05-22T04:05:00.741Z,100300
2023-05-22T04:06:00.835Z,100310
2023-05-22T04:07:00.659Z,100300
2023-05-22T04:08:00.684Z,100300
2023-05-22T04:09:00.736Z,100300
2023-05-22T04:10:01.620Z,100300
2023-05-22T04:11:00.701Z,100300
2023-05-22T04:12:01.391Z,100300
2023-05-22T04:13:00.663Z,100300
2023-05-22T04:14:02.565Z,100300
2023-05-22T04:15:00.707Z,100300
2023-05-22T04:16:00.727Z,100300
2023-05-22T04:17:00.696Z,100300
2023-05-22T04:18:00.735Z,100300
2023-05-22T04:19:00.725Z,100300
2023-05-22T04:20:00.848Z,100300
2023-05-22T04:21:00.718Z,100300
2023-05-22T04:22:00.714Z,100300
2023-05-22T04:23:00.676Z,100300
2023-05-22T04:24:01.675Z,100310
2023-05-22T04:25:00.647Z,100300
2023-05-22T04:26:00.738Z,100300
2023-05-22T04:27:00.656Z,100300
2023-05-22T04:28:00.970Z,100300
2023-05-22T04:29:01.117Z,100300
2023-05-22T04:30:01.866Z,100300
2023-05-22T04:31:00.861Z,100300
2023-05-22T04:32:00.704Z,100300
2023-05-22T04:33:00.717Z,100300
2023-05-22T04:34:00.693Z,100300
2023-05-22T04:35:00.925Z,100300
2023-05-22T04:36:00.727Z,100300
2023-05-22T04:37:00.673Z,100300
2023-05-22T04:38:00.779Z,100300
2023-05-22T04:39:00.666Z,100300
2023-05-22T04:40:01.076Z,100300
2023-05-22T04:41:01.061Z,100300
2023-05-22T04:42:00.704Z,100300
2023-05-22T04:43:00.662Z,100300
2023-05-22T04:44:00.660Z,100300
2023-05-22T04:45:00.674Z,100300
2023-05-22T04:46:00.955Z,100310
2023-05-22T04:47:01.156Z,100300
2023-05-22T04:48:00.670Z,100300
2023-05-22T04:49:00.765Z,100300
2023-05-22T04:50:00.653Z,100300
2023-05-22T04:51:00.734Z,100300
2023-05-22T04:52:00.654Z,100300
2023-05-22T04:53:00.714Z,100300
2023-05-22T04:54:00.683Z,100300
2023-05-22T04:55:02.324Z,100300
2023-05-22T04:56:00.677Z,100300
2023-05-22T04:57:00.742Z,100300
2023-05-22T04:58:00.693Z,100300
2023-05-22T04:59:00.733Z,100300
2023-05-22T05:00:00.676Z,100300
2023-05-22T05:01:00.731Z,100300
2023-05-22T05:02:00.660Z,100300
2023-05-22T05:03:00.848Z,100300
2023-05-22T05:04:01.449Z,100300
2023-05-22T05:05:00.717Z,100300
2023-05-22T05:06:00.715Z,100300
2023-05-22T05:07:00.711Z,100310
2023-05-22T05:08:00.691Z,100310
2023-05-22T05:09:00.655Z,100310
2023-05-22T05:10:00.683Z,100300
2023-05-22T05:11:00.639Z,100310
2023-05-22T05:12:01.196Z,100310
2023-05-22T05:13:00.675Z,100310
2023-05-22T05:14:00.746Z,100310
2023-05-22T05:15:00.676Z,100300
2023-05-22T05:16:00.706Z,100300
2023-05-22T05:17:00.755Z,100300
2023-05-22T05:18:00.716Z,100310
2023-05-22T05:19:00.775Z,100300
2023-05-22T05:20:01.350Z,100300
2023-05-22T05:21:00.652Z,100300
2023-05-22T05:22:00.695Z,100300
2023-05-22T05:23:00.665Z,100290
2023-05-22T05:24:01.153Z,100290
2023-05-22T05:25:00.684Z,100290
2023-05-22T05:26:00.711Z,100290
2023-05-22T05:27:00.654Z,100290
2023-05-22T05:28:00.678Z,100290
2023-05-22T05:29:00.649Z,100300
2023-05-22T05:30:00.678Z,100290
2023-05-22T05:31:00.665Z,100290
2023-05-22T05:32:00.734Z,100290
2023-05-22T05:33:00.726Z,100290
2023-05-22T05:34:00.685Z,100300
2023-05-22T05:35:00.846Z,100300
2023-05-22T05:36:00.660Z,100300
2023-05-22T05:37:01.567Z,100300
2023-05-22T05:38:00.665Z,100300
2023-05-22T05:39:00.886Z,100300
2023-05-22T05:40:00.662Z,100300
2023-05-22T05:41:00.686Z,100300
2023-05-22T05:42:00.678Z,100310
2023-05-22T05:43:00.647Z,100300
2023-05-22T05:44:00.654Z,100300
2023-05-22T05:45:00.694Z,100300
2023-05-22T05:46:00.843Z,100300
2023-05-22T05:47:00.707Z,100300
2023-05-22T05:48:00.770Z,100290
2023-05-22T05:49:05.978Z,100290
2023-05-22T05:50:00.683Z,100300
2023-05-22T05:51:00.720Z,100290
2023-05-22T05:52:00.653Z,100290
2023-05-22T05:53:00.761Z,100290
2023-05-22T05:54:00.870Z,100290
2023-05-22T05:55:00.894Z,100290
2023-05-22T05:56:00.692Z,100290
2023-05-22T05:57:00.689Z,100290
2023-05-22T05:58:00.749Z,100300
2023-05-22T05:59:00.667Z,100290
2023-05-22T06:00:00.746Z,100290
2023-05-22T06:01:00.680Z,100290
2023-05-22T06:02:00.719Z,100280
2023-05-22T06:03:00.723Z,100290
2023-05-22T06:04:01.297Z,100290
2023-05-22T06:05:00.923Z,100290
2023-05-22T06:06:00.774Z,100290
2023-05-22T06:07:00.690Z,100290
2023-05-22T06:08:00.698Z,100290
2023-05-22T06:09:01.670Z,100290
2023-05-22T06:10:00.694Z,100290
2023-05-22T06:11:00.689Z,100290
2023-05-22T06:12:00.651Z,100280
2023-05-22T06:13:00.726Z,100290
2023-05-22T06:14:01.681Z,100280
2023-05-22T06:15:00.669Z,100280
2023-05-22T06:16:02.843Z,100280
2023-05-22T06:17:00.743Z,100290
2023-05-22T06:18:00.678Z,100290
2023-05-22T06:19:00.751Z,100280
2023-05-22T06:20:00.682Z,100280
2023-05-22T06:21:00.711Z,100280
2023-05-22T06:22:00.984Z,100280
2023-05-22T06:23:00.674Z,100290
2023-05-22T06:24:00.667Z,100290
2023-05-22T06:25:00.721Z,100290
2023-05-22T06:26:00.662Z,100290
2023-05-22T06:27:00.672Z,100280
2023-05-22T06:28:00.663Z,100290
2023-05-22T06:29:00.680Z,100290
2023-05-22T06:30:00.725Z,100290
2023-05-22T06:31:00.690Z,100290
2023-05-22T06:32:00.711Z,100290
2023-05-22T06:33:00.994Z,100290
2023-05-22T06:34:00.755Z,100280
2023-05-22T06:35:01.296Z,100290
2023-05-22T06:36:01.116Z,100290
2023-05-22T06:37:00.651Z,100280
2023-05-22T06:38:00.710Z,100290
2023-05-22T06:39:01.666Z,100290
2023-05-22T06:40:00.931Z,100290
2023-05-22T06:41:00.660Z,100290
2023-05-22T06:42:00.758Z,100290
2023-05-22T06:43:00.789Z,100290
2023-05-22T06:44:01.056Z,100290
2023-05-22T06:45:00.711Z,100290
2023-05-22T06:46:00.735Z,100280
2023-05-22T06:47:00.702Z,100280
2023-05-22T06:48:00.742Z,100280
2023-05-22T06:49:00.675Z,100280
2023-05-22T06:50:00.856Z,100280
2023-05-22T06:51:00.964Z,100280
2023-05-22T06:52:01.221Z,100280
2023-05-22T06:53:00.665Z,100280
2023-05-22T06:54:00.718Z,100280
2023-05-22T06:55:00.668Z,100280
2023-05-22T06:56:00.744Z,100290
2023-05-22T06:57:00.684Z,100280
2023-05-22T06:58:00.669Z,100290
2023-05-22T06:59:00.656Z,100290
2023-05-22T07:00:00.806Z,100290
2023-05-22T07:01:00.695Z,100290
2023-05-22T07:02:00.700Z,100290
2023-05-22T07:03:00.702Z,100290
2023-05-22T07:04:01.688Z,100290
2023-05-22T07:05:00.722Z,100290
2023-05-22T07:06:00.901Z,100290
2023-05-22T07:07:00.767Z,100280
2023-05-22T07:08:00.670Z,100290
2023-05-22T07:09:00.732Z,100290
2023-05-22T07:10:00.932Z,100290
2023-05-22T07:11:00.663Z,100280
2023-05-22T07:12:00.678Z,100280
2023-05-22T07:13:00.670Z,100280
2023-05-22T07:14:00.820Z,100280
2023-05-22T07:15:00.818Z,100280
2023-05-22T07:16:01.116Z,100280
2023-05-22T07:17:00.810Z,100280
2023-05-22T07:18:00.732Z,100280
2023-05-22T07:19:00.693Z,100280
2023-05-22T07:20:00.666Z,100280
2023-05-22T07:21:00.700Z,100280
2023-05-22T07:22:00.911Z,100280
2023-05-22T07:23:00.657Z,100280
2023-05-22T07:24:01.477Z,100280
2023-05-22T07:25:00.656Z,100290
2023-05-22T07:26:00.677Z,100290
2023-05-22T07:27:00.782Z,100290
2023-05-22T07:28:00.689Z,100290
2023-05-22T07:29:00.756Z,100290
2023-05-22T07:30:00.663Z,100280
2023-05-22T07:31:00.845Z,100290
2023-05-22T07:32:00.790Z,100280
2023-05-22T07:33:00.732Z,100290
2023-05-22T07:34:00.684Z,100290
2023-05-22T07:35:00.721Z,100280
2023-05-22T07:36:00.681Z,100280
2023-05-22T07:37:07.629Z,100280
2023-05-22T07:38:00.708Z,100280
2023-05-22T07:39:00.799Z,100290
2023-05-22T07:40:01.138Z,100280
2023-05-22T07:41:00.647Z,100280
2023-05-22T07:42:01.680Z,100280
2023-05-22T07:43:00.651Z,100280
2023-05-22T07:44:00.651Z,100280
2023-05-22T07:45:00.995Z,100280
2023-05-22T07:46:00.768Z,100280
2023-05-22T07:47:00.668Z,100280
2023-05-22T07:48:00.708Z,100290
2023-05-22T07:49:00.809Z,100290
2023-05-22T07:50:00.943Z,100290
2023-05-22T07:51:00.684Z,100280
2023-05-22T07:52:00.674Z,100280
2023-05-22T07:53:00.660Z,100280
2023-05-22T07:54:01.027Z,100270
2023-05-22T07:55:00.667Z,100270
2023-05-22T07:56:00.703Z,100280
2023-05-22T07:57:00.651Z,100270
2023-05-22T07:58:00.657Z,100270
2023-05-22T07:59:00.659Z,100280
2023-05-22T08:00:01.364Z,100280
2023-05-22T08:01:00.640Z,100290
2023-05-22T08:02:00.669Z,100280
2023-05-22T08:03:00.825Z,100280
2023-05-22T08:04:00.991Z,100270
2023-05-22T08:05:01.118Z,100280
2023-05-22T08:06:02.492Z,100280
2023-05-22T08:07:00.720Z,100280
2023-05-22T08:08:00.645Z,100270
2023-05-22T08:09:01.158Z,100270
2023-05-22T08:10:05.795Z,100270
2023-05-22T08:11:04.151Z,100270
2023-05-22T08:12:01.194Z,100270
2023-05-22T08:13:00.666Z,100270
2023-05-22T08:14:00.661Z,100270
2023-05-22T08:15:00.722Z,100270
2023-05-22T08:16:01.465Z,100270
2023-05-22T08:17:00.690Z,100270
2023-05-22T08:18:00.824Z,100260
2023-05-22T08:19:00.816Z,100260
2023-05-22T08:20:00.944Z,100260
2023-05-22T08:21:00.979Z,100260
2023-05-22T08:22:00.717Z,100260
2023-05-22T08:23:00.644Z,100260
2023-05-22T08:24:00.779Z,100260
2023-05-22T08:25:00.656Z,100260
2023-05-22T08:26:00.939Z,100260
2023-05-22T08:27:00.745Z,100270
2023-05-22T08:28:00.651Z,100260
2023-05-22T08:29:00.689Z,100270
2023-05-22T08:30:02.290Z,100270
2023-05-22T08:31:00.645Z,100260
2023-05-22T08:32:00.872Z,100270
2023-05-22T08:33:00.699Z,100260
2023-05-22T08:34:00.858Z,100260
2023-05-22T08:35:01.257Z,100260
2023-05-22T08:36:00.745Z,100260
2023-05-22T08:37:00.671Z,100270
2023-05-22T08:38:00.717Z,100260
2023-05-22T08:39:00.682Z,100260
2023-05-22T08:40:00.655Z,100260
2023-05-22T08:41:00.649Z,100260
2023-05-22T08:42:00.742Z,100260
2023-05-22T08:43:01.217Z,100260
2023-05-22T08:44:00.701Z,100260
2023-05-22T08:45:00.711Z,100250
2023-05-22T08:46:03.617Z,100250
2023-05-22T08:47:00.988Z,100250
2023-05-22T08:48:04.425Z,100250
2023-05-22T08:49:01.304Z,100250
2023-05-22T08:50:01.488Z,100250
2023-05-22T08:51:03.808Z,100250
2023-05-22T08:52:06.685Z,100250
2023-05-22T08:53:02.039Z,100240
2023-05-22T08:54:04.274Z,100250
2023-05-22T08:55:03.325Z,100240
2023-05-22T08:56:02.247Z,100250
2023-05-22T08:57:01.278Z,100260
2023-05-22T08:58:01.076Z,100250
2023-05-22T08:59:01.860Z,100250
2023-05-22T09:00:00.709Z,100240
2023-05-22T09:01:01.654Z,100240
2023-05-22T09:02:01.179Z,100250
2023-05-22T09:03:01.354Z,100250
2023-05-22T09:04:01.829Z,100240
2023-05-22T09:05:00.692Z,100250
2023-05-22T09:06:01.097Z,100240
2023-05-22T09:07:00.678Z,100230
2023-05-22T09:08:15.832Z,100240
2023-05-22T09:09:00.680Z,100230
2023-05-22T09:10:00.668Z,100230
2023-05-22T09:11:00.650Z,100220
2023-05-22T09:12:00.672Z,100230
2023-05-22T09:13:01.693Z,100230
2023-05-22T09:14:05.905Z,100240
2023-05-22T09:15:09.009Z,100230
2023-05-22T09:16:08.792Z,100220
2023-05-22T09:17:00.681Z,100220
2023-05-22T09:18:04.178Z,100220
2023-05-22T09:19:00.703Z,100220
2023-05-22T09:20:00.688Z,100220
2023-05-22T09:21:00.652Z,100210
2023-05-22T09:22:01.868Z,100220
2023-05-22T09:23:00.773Z,100230
2023-05-22T09:24:00.666Z,100230
2023-05-22T09:25:00.730Z,100220
2023-05-22T09:26:02.042Z,100220
2023-05-22T09:27:02.931Z,100220
2023-05-22T09:28:00.661Z,100220
2023-05-22T09:29:00.974Z,100220
2023-05-22T09:30:00.681Z,100220
2023-05-22T09:31:03.931Z,100220
2023-05-22T09:32:00.854Z,100220
2023-05-22T09:33:01.069Z,100220
2023-05-22T09:34:00.774Z,100230
2023-05-22T09:35:01.487Z,100220
2023-05-22T09:36:00.718Z,100220
2023-05-22T09:37:01.447Z,100210
2023-05-22T09:38:00.741Z,100210
2023-05-22T09:39:02.622Z,100220
2023-05-22T09:40:05.738Z,100210
2023-05-22T09:41:00.701Z,100230
2023-05-22T09:42:00.705Z,100210
2023-05-22T09:43:05.453Z,100210
2023-05-22T09:44:02.038Z,100220
2023-05-22T09:45:04.020Z,100210
2023-05-22T09:46:02.351Z,100210
2023-05-22T09:47:02.040Z,100210
2023-05-22T09:48:01.381Z,100210
2023-05-22T09:49:00.701Z,100210
2023-05-22T09:50:02.986Z,100210
2023-05-22T09:51:02.269Z,100210
2023-05-22T09:52:03.163Z,100190
2023-05-22T09:53:02.848Z,100210
2023-05-22T09:54:06.938Z,100210
2023-05-22T09:55:02.540Z,100200
2023-05-22T09:56:04.381Z,100200
2023-05-22T09:57:05.495Z,100200
2023-05-22T09:58:02.770Z,100200
2023-05-22T09:59:01.220Z,100200
2023-05-22T10:00:02.855Z,100200
2023-05-22T10:01:01.096Z,100190
2023-05-22T10:02:00.773Z,100200
2023-05-22T10:03:07.759Z,100200
2023-05-22T10:04:03.226Z,100190
2023-05-22T10:05:05.152Z,100190
2023-05-22T10:06:01.517Z,100190
2023-05-22T10:07:01.800Z,100190
2023-05-22T10:08:06.500Z,100190
2023-05-22T10:09:06.461Z,100180
2023-05-22T10:10:07.373Z,100190
2023-05-22T10:11:01.850Z,100190
2023-05-22T10:12:05.206Z,100190
2023-05-22T10:13:02.883Z,100180
2023-05-22T10:14:01.496Z,100180
2023-05-22T10:15:00.923Z,100180
2023-05-22T10:16:02.647Z,100180
2023-05-22T10:17:00.832Z,100180
2023-05-22T10:18:01.121Z,100180
2023-05-22T10:19:00.902Z,100190
2023-05-22T10:20:01.092Z,100190
2023-05-22T10:21:01.508Z,100190
2023-05-22T10:22:02.629Z,100180
2023-05-22T10:23:02.024Z,100180
2023-05-22T10:24:01.205Z,100180
2023-05-22T10:25:01.709Z,100180
2023-05-22T10:26:01.002Z,100180
2023-05-22T10:27:02.056Z,100190
2023-05-22T10:28:01.135Z,100180
2023-05-22T10:29:13.631Z,100180
2023-05-22T10:30:10.595Z,100180
2023-05-22T10:31:05.289Z,100190
2023-05-22T10:32:08.152Z,100180
2023-05-22T10:33:18.233Z,100170
2023-05-22T10:34:04.993Z,100170
2023-05-22T10:35:06.389Z,100170
2023-05-22T10:36:04.295Z,100180
2023-05-22T10:37:17.353Z,100160
2023-05-22T10:38:20.600Z,100170
2023-05-22T10:39:15.290Z,100190
2023-05-22T10:40:06.445Z,100170
2023-05-22T10:41:02.515Z,100170
2023-05-22T10:42:00.856Z,100170
2023-05-22T10:43:02.139Z,100170
2023-05-22T10:44:01.398Z,100180
2023-05-22T10:45:01.883Z,100170
2023-05-22T10:46:02.294Z,100170
2023-05-22T10:47:07.630Z,100180
2023-05-22T10:48:03.374Z,100170
2023-05-22T10:49:00.890Z,100180
2023-05-22T10:50:07.564Z,100170
2023-05-22T10:51:00.960Z,100170
2023-05-22T10:52:02.212Z,100180
2023-05-22T10:53:20.607Z,100170
2023-05-22T10:54:00.833Z,100170
2023-05-22T10:55:04.743Z,100180
2023-05-22T10:56:15.015Z,100180
2023-05-22T10:57:14.696Z,100180
2023-05-22T10:58:12.099Z,100170
2023-05-22T10:59:02.150Z,100170
2023-05-22T11:00:11.730Z,100170
2023-05-22T11:01:09.758Z,100180
2023-05-22T11:02:00.747Z,100170
2023-05-22T11:03:17.234Z,100170
2023-05-22T11:04:09.506Z,100160
2023-05-22T11:05:20.569Z,100170
2023-05-22T11:06:00.724Z,100170
2023-05-22T11:07:03.067Z,100170
2023-05-22T11:08:09.513Z,100170
2023-05-22T11:09:19.061Z,100170
2023-05-22T11:10:00.693Z,100170
2023-05-22T11:11:10.184Z,100170
2023-05-22T11:12:18.011Z,100170
2023-05-22T11:13:10.135Z,100170
2023-05-22T11:14:01.142Z,100180
2023-05-22T11:15:04.759Z,100160
2023-05-22T11:16:03.913Z,100180
2023-05-22T11:17:00.981Z,100170
2023-05-22T11:18:02.178Z,100160
2023-05-22T11:19:18.627Z,100160
2023-05-22T11:20:12.895Z,100170
2023-05-22T11:21:00.777Z,100160
2023-05-22T11:22:02.577Z,100160
2023-05-22T11:23:04.552Z,100160
2023-05-22T11:24:00.736Z,100160
2023-05-22T11:25:03.917Z,100160
2023-05-22T11:26:18.636Z,100160
2023-05-22T11:27:04.721Z,100150
2023-05-22T11:28:04.082Z,100160
2023-05-22T11:29:00.801Z,100160
2023-05-22T11:30:00.779Z,100150
2023-05-22T11:31:00.962Z,100160
2023-05-22T11:32:01.056Z,100150
2023-05-22T11:33:01.170Z,100150
2023-05-22T11:34:01.174Z,100150
2023-05-22T11:35:00.994Z,100150
2023-05-22T11:36:01.909Z,100150
2023-05-22T11:37:01.135Z,100150
2023-05-22T11:38:03.904Z,100150
2023-05-22T11:39:00.710Z,100160
2023-05-22T11:40:03.615Z,100150
2023-05-22T11:41:00.691Z,100140
2023-05-22T11:42:00.694Z,100150
2023-05-22T11:43:00.698Z,100150
2023-05-22T11:44:01.271Z,100150
2023-05-22T11:45:01.730Z,100140
2023-05-22T11:46:09.315Z,100130
2023-05-22T11:47:00.736Z,100150
2023-05-22T11:48:00.737Z,100140
2023-05-22T11:49:01.767Z,100140
2023-05-22T11:50:00.856Z,100140
2023-05-22T11:51:01.837Z,100140
2023-05-22T11:52:00.770Z,100140
2023-05-22T11:53:00.774Z,100150
2023-05-22T11:54:00.671Z,100140
2023-05-22T11:55:02.481Z,100150
2023-05-22T11:56:01.381Z,100130
2023-05-22T11:57:03.248Z,100150
2023-05-22T11:58:00.662Z,100130
2023-05-22T11:59:00.996Z,100130
2023-05-22T12:00:02.115Z,100130
2023-05-22T12:01:02.004Z,100140
2023-05-22T12:02:00.768Z,100140
2023-05-22T12:03:00.843Z,100130
2023-05-22T12:04:01.164Z,100120
2023-05-22T12:05:00.652Z,100140
2023-05-22T12:06:01.405Z,100130
2023-05-22T12:07:00.801Z,100130
2023-05-22T12:08:00.866Z,100130
2023-05-22T12:09:00.851Z,100130
2023-05-22T12:10:00.915Z,100130
2023-05-22T12:11:03.902Z,100120
2023-05-22T12:12:00.735Z,100120
2023-05-22T12:13:00.735Z,100130
2023-05-22T12:14:01.363Z,100130
2023-05-22T12:15:03.816Z,100130
2023-05-22T12:16:00.705Z,100130
2023-05-22T12:17:01.552Z,100120
2023-05-22T12:18:00.681Z,100120
2023-05-22T12:19:05.357Z,100130
2023-05-22T12:20:00.672Z,100120
2023-05-22T12:21:00.745Z,100120
2023-05-22T12:22:03.474Z,100120
2023-05-22T12:23:02.175Z,100120
2023-05-22T12:24:03.212Z,100120
2023-05-22T12:25:00.684Z,100120
2023-05-22T12:26:03.135Z,100120
2023-05-22T12:27:00.654Z,100120
2023-05-22T12:28:00.658Z,100110